This is the latest recevied weather packets stored in our database for station/object KE9ADS. If no packets are shown the sender has not sent any weather packets the latest 10 day(s).
| Time | Temp. | Humidity | Pressure | Rain* | Wind** | Luminosity | Snow |
|---|---|---|---|---|---|---|---|
| 1777670828 | 12.22° C | 50% | 1019.7 hPa | 0 mm | - | 133 W/m² | - |
| 1777670227 | 12.22° C | 49% | 1019.9 hPa | 0 mm | - | 111 W/m² | - |
| 1777669627 | 13.33° C | 45% | 1019.7 hPa | 0 mm | - | 146 W/m² | - |
| 1777669026 | 12.78° C | 50% | 1019.9 hPa | 0 mm | - | 261 W/m² | - |
| 1777668426 | 11.67° C | 49% | 1020.2 hPa | 0 mm | - | 265 W/m² | - |
| 1777667824 | 11.67° C | 48% | 1020.1 hPa | 0 mm | - | 75 W/m² | - |
| 1777667224 | 12.22° C | 46% | 1020.1 hPa | 0 mm | - | 144 W/m² | - |
| 1777666623 | 12.22° C | 46% | 1020.1 hPa | 0 mm | - | 240 W/m² | - |
| 1777666022 | 12.78° C | 48% | 1020.2 hPa | 0 mm | - | 183 W/m² | - |
| 1777665417 | 13.33° C | 46% | 1020.2 hPa | 0 mm | - | 566 W/m² | - |
| 1777664815 | 13.33° C | 45% | 1020.2 hPa | 0 mm | - | 369 W/m² | - |
| 1777664214 | 14.44° C | 42% | 1020.2 hPa | 0 mm | - | 337 W/m² | - |
| 1777663609 | 13.33° C | 45% | 1020.5 hPa | 0 mm | - | 657 W/m² | - |
| 1777663003 | 11.67° C | 48% | 1020.3 hPa | 0 mm | - | 263 W/m² | - |
| 1777662403 | 12.78° C | 45% | 1020.4 hPa | 0 mm | - | 290 W/m² | - |
| 1777661800 | 12.78° C | 45% | 1020.3 hPa | 0 mm | - | 521 W/m² | - |
| 1777661198 | 12.22° C | 47% | 1020.4 hPa | 0 mm | - | 812 W/m² | - |
| 1777660596 | 12.78° C | 45% | 1020.4 hPa | 0 mm | - | 317 W/m² | - |
| 1777659995 | 11.67° C | 48% | 1020.4 hPa | 0 mm | - | 461 W/m² | - |
| 1777659394 | 11.67° C | 47% | 1020.6 hPa | 0 mm | - | 406 W/m² | - |
| 1777658790 | 11.11° C | 46% | 1020.4 hPa | 0 mm | - | 340 W/m² | - |
| 1777658188 | 10.56° C | 50% | 1020.6 hPa | 0 mm | - | 393 W/m² | - |
| 1777657587 | 10.56° C | 51% | 1020.5 hPa | 0 mm | - | 174 W/m² | - |
| 1777656982 | 10° C | 50% | 1020.6 hPa | 0 mm | - | 122 W/m² | - |
| 1777656381 | 10° C | 48% | 1020.6 hPa | 0 mm | - | 106 W/m² | - |
* Rain latest hour (hover to see other rain measurements)
** Current wind speed in m/s (hover to see current wind gust speed)